createdAt,value
2018-06-27T00:00:39.557Z,78.69
2018-06-27T00:01:20.248Z,78.55
2018-06-27T00:02:00.796Z,78.45
2018-06-27T00:02:41.357Z,78.49
2018-06-27T00:03:21.900Z,78.78
2018-06-27T00:04:02.456Z,78.69
2018-06-27T00:04:42.991Z,78.49
2018-06-27T00:05:23.579Z,79.22
2018-06-27T00:06:04.129Z,79.16
2018-06-27T00:06:44.686Z,79.07
2018-06-27T00:07:25.264Z,79.22
2018-06-27T00:08:05.809Z,79.03
2018-06-27T00:08:46.399Z,78.93
2018-06-27T00:09:26.977Z,79.03
2018-06-27T00:10:07.536Z,79.7
2018-06-27T00:10:48.063Z,79.51
2018-06-27T00:11:28.609Z,79.8
2018-06-27T00:12:09.190Z,79.7
2018-06-27T00:12:49.773Z,79.8
2018-06-27T00:13:30.320Z,79.74
2018-06-27T00:14:10.871Z,79.6
2018-06-27T00:14:51.469Z,79.6
2018-06-27T00:15:32.029Z,79.51
2018-06-27T00:16:12.623Z,79.51
2018-06-27T00:16:53.295Z,79.41
2018-06-27T00:17:33.925Z,79.41
2018-06-27T00:18:14.574Z,79.8
2018-06-27T00:18:55.129Z,79.8
2018-06-27T00:19:35.671Z,79.6
2018-06-27T00:20:16.229Z,79.99
2018-06-27T00:20:57.648Z,79.51
2018-06-27T00:21:38.233Z,80.18
2018-06-27T00:22:18.801Z,79.99
2018-06-27T00:22:59.367Z,80.37
2018-06-27T00:23:39.876Z,80.27
2018-06-27T00:24:20.420Z,80.18
2018-06-27T00:25:00.963Z,79.99
2018-06-27T00:25:41.498Z,81.04
2018-06-27T00:26:22.040Z,80.66
2018-06-27T00:27:02.578Z,80.66
2018-06-27T00:27:43.118Z,80.76
2018-06-27T00:28:23.655Z,80.85
2018-06-27T00:29:04.188Z,80.66
2018-06-27T00:29:44.759Z,80.37
2018-06-27T00:30:25.299Z,80.37
2018-06-27T00:31:05.880Z,80.85
2018-06-27T00:31:46.458Z,80.76
2018-06-27T00:32:27.079Z,80.66
2018-06-27T00:33:07.717Z,81.23
2018-06-27T00:33:48.318Z,81.04
2018-06-27T00:34:28.851Z,80.94
2018-06-27T00:35:09.415Z,80.94
2018-06-27T00:35:49.966Z,80.66
2018-06-27T00:36:30.537Z,81.04
2018-06-27T00:37:11.097Z,81.13
2018-06-27T00:37:51.654Z,80.56
2018-06-27T00:38:32.186Z,80.66
2018-06-27T00:39:12.748Z,80.94
2018-06-27T00:39:53.315Z,81.23
2018-06-27T00:40:33.903Z,81.23
2018-06-27T00:41:14.463Z,81.33
2018-06-27T00:41:55.029Z,81.33
2018-06-27T00:42:35.601Z,81.71
2018-06-27T00:43:16.188Z,81.81
2018-06-27T00:43:56.768Z,81.81
2018-06-27T00:44:37.326Z,81.71
2018-06-27T00:45:17.892Z,81.71
2018-06-27T00:45:58.473Z,81.52
2018-06-27T00:46:39.145Z,81.33
2018-06-27T00:47:22.625Z,81.43
2018-06-27T00:48:03.184Z,81.62
2018-06-27T00:48:43.748Z,81.81
2018-06-27T00:49:24.316Z,81.81
2018-06-27T00:50:04.973Z,81.81
2018-06-27T00:50:45.543Z,81.71
2018-06-27T00:51:26.104Z,81.67
2018-06-27T00:52:06.654Z,82
2018-06-27T00:52:47.220Z,81.52
2018-06-27T00:53:27.877Z,81.71
2018-06-27T00:54:08.478Z,81.81
2018-06-27T00:54:49.139Z,82.38
2018-06-27T00:55:29.723Z,82.24
2018-06-27T00:56:10.287Z,82.09
2018-06-27T00:56:50.875Z,82
2018-06-27T00:57:31.447Z,82.06
2018-06-27T00:58:12.224Z,82.06
2018-06-27T00:58:52.836Z,82.15
2018-06-27T00:59:33.396Z,81.96
2018-06-27T01:00:13.948Z,82.24
2018-06-27T01:00:54.569Z,82.06
2018-06-27T01:01:35.067Z,82
2018-06-27T01:02:15.631Z,82.15
2018-06-27T01:02:56.176Z,82.53
2018-06-27T01:03:36.814Z,82.24
2018-06-27T01:04:17.368Z,82.43
2018-06-27T01:04:57.937Z,82.43
2018-06-27T01:05:38.493Z,82.43
2018-06-27T01:06:19.089Z,82.43
2018-06-27T01:06:59.679Z,82.24
2018-06-27T01:07:40.247Z,82.43
2018-06-27T01:08:20.769Z,82.48
2018-06-27T01:09:01.320Z,82.43
2018-06-27T01:09:41.875Z,82.86
2018-06-27T01:10:22.426Z,82.34
2018-06-27T01:11:03.006Z,82.73
2018-06-27T01:11:43.657Z,82.86
2018-06-27T01:12:24.311Z,82.53
2018-06-27T01:13:04.958Z,82.63
2018-06-27T01:13:45.709Z,82.63
2018-06-27T01:14:26.313Z,82.43
2018-06-27T01:15:06.912Z,82.92
2018-06-27T01:15:47.436Z,83.11
2018-06-27T01:16:28.007Z,83.01
2018-06-27T01:17:08.607Z,82.73
2018-06-27T01:17:49.179Z,83.01
2018-06-27T01:18:29.739Z,83.3
2018-06-27T01:19:10.385Z,83.49
2018-06-27T01:19:50.896Z,83.11
2018-06-27T01:20:31.716Z,82.82
2018-06-27T01:21:12.269Z,82.63
2018-06-27T01:21:52.831Z,83.2
2018-06-27T01:22:33.367Z,83.3
2018-06-27T01:23:13.983Z,83.3
2018-06-27T01:23:54.513Z,82.92
2018-06-27T01:24:35.086Z,83.01
2018-06-27T01:25:15.641Z,82.82
2018-06-27T01:25:56.450Z,83.39
2018-06-27T01:26:37.058Z,83.49
2018-06-27T01:27:17.608Z,83.11
2018-06-27T01:27:58.158Z,83.49
2018-06-27T01:28:38.933Z,83.3
2018-06-27T01:29:19.738Z,82.92
2018-06-27T01:30:00.290Z,83.01
2018-06-27T01:30:40.852Z,83.59
2018-06-27T01:31:21.404Z,83.68
2018-06-27T01:32:02.039Z,83.87
2018-06-27T01:32:42.659Z,83.97
2018-06-27T01:33:23.216Z,83.87
2018-06-27T01:34:03.764Z,83.78
2018-06-27T01:34:44.299Z,83.59
2018-06-27T01:35:24.865Z,83.97
2018-06-27T01:36:05.474Z,83.68
2018-06-27T01:36:46.030Z,84.26
2018-06-27T01:37:26.686Z,84.26
2018-06-27T01:38:07.243Z,83.97
2018-06-27T01:38:47.878Z,84.16
2018-06-27T01:39:28.433Z,84.06
2018-06-27T01:40:08.991Z,84.06
2018-06-27T01:40:49.562Z,84.16
2018-06-27T01:41:30.152Z,84.06
2018-06-27T01:42:10.659Z,84.26
2018-06-27T01:42:51.194Z,83.97
2018-06-27T01:43:31.752Z,84.06
2018-06-27T01:44:12.297Z,84.16
2018-06-27T01:44:52.849Z,83.97
2018-06-27T01:45:33.428Z,84.06
2018-06-27T01:46:14.001Z,84.35
2018-06-27T01:46:54.529Z,84.16
2018-06-27T01:47:35.080Z,84.06
2018-06-27T01:48:15.629Z,84.06
2018-06-27T01:48:56.189Z,84.26
2018-06-27T01:49:36.727Z,84.16
2018-06-27T01:50:17.269Z,83.78
2018-06-27T01:50:57.829Z,83.68
2018-06-27T01:51:38.384Z,83.78
2018-06-27T01:52:18.943Z,83.97
2018-06-27T01:52:59.484Z,84.26
2018-06-27T01:53:40.060Z,84.16
2018-06-27T01:54:20.631Z,83.97
2018-06-27T01:55:01.198Z,83.97
2018-06-27T01:55:41.760Z,84.16
2018-06-27T01:56:22.323Z,83.68
2018-06-27T01:57:02.861Z,83.78
2018-06-27T01:57:43.429Z,84.26
2018-06-27T01:58:23.988Z,83.97
2018-06-27T01:59:04.540Z,83.78
2018-06-27T01:59:45.183Z,84.16
2018-06-27T02:00:25.752Z,84.26
2018-06-27T02:01:06.406Z,84.26
2018-06-27T02:01:47.002Z,84.06
2018-06-27T02:02:27.642Z,84.26
2018-06-27T02:03:08.309Z,84.06
2018-06-27T02:03:48.870Z,84.26
2018-06-27T02:04:29.505Z,83.97
2018-06-27T02:05:10.070Z,84.16
2018-06-27T02:05:50.673Z,84.16
2018-06-27T02:06:31.238Z,83.97
2018-06-27T02:07:11.826Z,84.06
2018-06-27T02:07:52.400Z,84.26
2018-06-27T02:08:33.004Z,83.97
2018-06-27T02:09:13.725Z,83.97
2018-06-27T02:09:54.361Z,84.74
2018-06-27T02:10:34.954Z,84.26
2018-06-27T02:11:15.635Z,84.35
2018-06-27T02:11:56.223Z,84.74
2018-06-27T02:12:37.030Z,84.06
2018-06-27T02:13:17.599Z,84.45
2018-06-27T02:13:58.194Z,84.41
2018-06-27T02:14:38.779Z,84.88
2018-06-27T02:15:19.463Z,84.92
2018-06-27T02:16:00.038Z,84.35
2018-06-27T02:16:40.649Z,84.35
2018-06-27T02:17:21.353Z,84.74
2018-06-27T02:18:01.883Z,84.26
2018-06-27T02:18:42.564Z,84.35
2018-06-27T02:19:23.211Z,84.74
2018-06-27T02:20:03.841Z,84.45
2018-06-27T02:20:44.464Z,84.59
2018-06-27T02:21:25.137Z,84.55
2018-06-27T02:22:05.841Z,84.55
2018-06-27T02:22:46.556Z,84.74
2018-06-27T02:23:27.308Z,84.64
2018-06-27T02:24:08.117Z,84.79
2018-06-27T02:24:48.755Z,84.83
2018-06-27T02:25:29.373Z,84.64
2018-06-27T02:26:10.046Z,84.83
2018-06-27T02:26:50.629Z,84.45
2018-06-27T02:27:31.363Z,84.26
2018-06-27T02:28:11.914Z,84.74
2018-06-27T02:28:52.683Z,84.55
2018-06-27T02:29:33.430Z,84.92
2018-06-27T02:30:13.998Z,84.83
2018-06-27T02:30:54.597Z,84.74
2018-06-27T02:31:35.237Z,84.79
2018-06-27T02:32:15.808Z,84.55
2018-06-27T02:32:56.490Z,84.92
2018-06-27T02:33:37.151Z,84.64
2018-06-27T02:34:17.776Z,84.26
2018-06-27T02:34:58.415Z,84.45
2018-06-27T02:35:38.935Z,84.64
2018-06-27T02:36:19.603Z,84.45
2018-06-27T02:37:00.344Z,84.45
2018-06-27T02:37:40.961Z,84.45
2018-06-27T02:38:21.551Z,84.26
2018-06-27T02:39:02.138Z,84.35
2018-06-27T02:39:42.857Z,84.55
2018-06-27T02:40:23.443Z,84.26
2018-06-27T02:41:04.070Z,84.16
2018-06-27T02:41:44.721Z,83.97
2018-06-27T02:42:25.333Z,84.26
2018-06-27T02:43:06.022Z,84.16
2018-06-27T02:43:46.651Z,84.16
2018-06-27T02:44:27.409Z,84.06
2018-06-27T02:45:07.989Z,84.16
2018-06-27T02:45:48.601Z,84.16
2018-06-27T02:46:29.226Z,83.97
2018-06-27T02:47:09.905Z,84.16
2018-06-27T02:47:50.592Z,84.06
2018-06-27T02:48:31.235Z,83.97
2018-06-27T02:49:11.851Z,84.16
2018-06-27T02:49:52.601Z,84.16
2018-06-27T02:50:33.079Z,84.26
2018-06-27T02:51:13.778Z,84.06
2018-06-27T02:51:54.423Z,84.16
2018-06-27T02:52:35.055Z,84.45
2018-06-27T02:53:15.772Z,84.26
2018-06-27T02:53:56.405Z,84.06
2018-06-27T02:54:37.052Z,84.26
2018-06-27T02:55:17.663Z,84.45
2018-06-27T02:55:58.373Z,84.06
2018-06-27T02:56:38.956Z,84.45
2018-06-27T02:57:19.538Z,84.16
2018-06-27T02:58:00.164Z,84.26
2018-06-27T02:58:40.783Z,84.45
2018-06-27T02:59:21.365Z,84.64
2018-06-27T03:00:01.913Z,84.26
2018-06-27T03:00:42.568Z,84.55
2018-06-27T03:01:23.171Z,84.06
2018-06-27T03:02:03.949Z,84.26
2018-06-27T03:02:44.618Z,83.78
2018-06-27T03:03:25.266Z,83.68
2018-06-27T03:04:05.872Z,84.16
2018-06-27T03:04:46.652Z,84.06
2018-06-27T03:05:27.256Z,84.06
2018-06-27T03:06:07.869Z,84.06
2018-06-27T03:06:48.459Z,84.06
2018-06-27T03:07:29.037Z,84.16
2018-06-27T03:08:09.715Z,84.35
2018-06-27T03:08:50.277Z,83.97
2018-06-27T03:09:30.845Z,84.16
2018-06-27T03:10:11.486Z,84.06
2018-06-27T03:10:52.033Z,83.78
2018-06-27T03:11:32.691Z,83.87
2018-06-27T03:12:13.251Z,83.78
2018-06-27T03:12:53.836Z,83.78
2018-06-27T03:13:34.453Z,83.73
2018-06-27T03:14:15.011Z,83.73
2018-06-27T03:14:55.632Z,83.78
2018-06-27T03:15:36.200Z,84.02
2018-06-27T03:16:16.749Z,84.45
2018-06-27T03:16:57.303Z,84.06
2018-06-27T03:17:37.866Z,84.16
2018-06-27T03:18:18.545Z,84.16
2018-06-27T03:18:59.098Z,83.78
2018-06-27T03:19:39.658Z,83.78
2018-06-27T03:20:20.274Z,83.68
2018-06-27T03:21:00.816Z,83.78
2018-06-27T03:21:41.389Z,83.49
2018-06-27T03:22:22.006Z,83.59
2018-06-27T03:23:02.636Z,83.59
2018-06-27T03:23:43.133Z,83.68
2018-06-27T03:24:23.683Z,83.68
2018-06-27T03:25:04.279Z,83.49
2018-06-27T03:25:44.807Z,83.59
2018-06-27T03:26:25.462Z,83.49
2018-06-27T03:27:06.039Z,83.39
2018-06-27T03:27:46.616Z,83.39
2018-06-27T03:28:27.176Z,83.39
2018-06-27T03:29:07.737Z,83.01
2018-06-27T03:29:48.286Z,83.59
2018-06-27T03:30:28.911Z,83.59
2018-06-27T03:31:09.474Z,83.3
2018-06-27T03:31:50.091Z,83.87
2018-06-27T03:32:30.881Z,83.97
2018-06-27T03:33:11.560Z,83.49
2018-06-27T03:33:52.274Z,83.39
2018-06-27T03:34:32.949Z,83.01
2018-06-27T03:35:13.534Z,83.11
2018-06-27T03:35:54.540Z,82.82
2018-06-27T03:36:35.094Z,83.11
2018-06-27T03:37:15.873Z,83.01
2018-06-27T03:37:56.516Z,83.11
2018-06-27T03:38:37.103Z,82.92
2018-06-27T03:39:17.783Z,83.11
2018-06-27T03:39:58.586Z,82.82
2018-06-27T03:40:39.328Z,82.82
2018-06-27T03:42:00.686Z,83.39
2018-06-27T03:42:41.482Z,83.59
2018-06-27T03:43:22.135Z,83.59
2018-06-27T03:44:02.724Z,83.68
2018-06-27T03:44:43.335Z,83.97
2018-06-27T03:45:24.164Z,83.97
2018-06-27T03:46:04.705Z,83.78
2018-06-27T03:46:45.322Z,83.59
2018-06-27T03:47:25.965Z,83.59
2018-06-27T03:48:06.621Z,83.3
2018-06-27T03:48:47.173Z,83.01
2018-06-27T03:49:27.758Z,83.2
2018-06-27T03:50:08.351Z,82.73
2018-06-27T03:50:48.929Z,82.92
2018-06-27T03:51:29.479Z,83.01
2018-06-27T03:52:10.128Z,83.3
2018-06-27T03:52:50.714Z,83.01
2018-06-27T03:53:31.291Z,83.01
2018-06-27T03:54:11.887Z,83.11
2018-06-27T03:54:52.538Z,83.78
2018-06-27T03:55:33.192Z,83.2
2018-06-27T03:56:13.848Z,83.78
2018-06-27T03:56:54.408Z,83.49
2018-06-27T03:57:34.979Z,83.78
2018-06-27T03:58:15.538Z,84.06
2018-06-27T03:58:56.200Z,83.11
2018-06-27T03:59:36.740Z,83.2
2018-06-27T04:00:17.316Z,83.39
2018-06-27T04:00:57.880Z,83.39
2018-06-27T04:01:38.556Z,83.01
2018-06-27T04:02:19.161Z,83.59
2018-06-27T04:02:59.812Z,83.49
2018-06-27T04:03:40.358Z,83.2
2018-06-27T04:04:20.912Z,83.49
2018-06-27T04:05:01.520Z,83.39
2018-06-27T04:05:42.080Z,83.3
2018-06-27T04:06:22.659Z,83.3
2018-06-27T04:07:03.195Z,83.39
2018-06-27T04:07:43.913Z,83.01
2018-06-27T04:08:24.461Z,83.01
2018-06-27T04:09:05.026Z,83.59
2018-06-27T04:09:45.592Z,83.39
2018-06-27T04:10:26.142Z,83.01
2018-06-27T04:11:06.770Z,83.01
2018-06-27T04:11:47.317Z,83.3
2018-06-27T04:12:27.955Z,83.2
2018-06-27T04:13:08.698Z,83.11
2018-06-27T04:13:49.096Z,83.39
2018-06-27T04:14:29.742Z,83.3
2018-06-27T04:15:10.340Z,83.01
2018-06-27T04:15:50.963Z,82.92
2018-06-27T04:16:31.596Z,83.39
2018-06-27T04:17:12.162Z,82.63
2018-06-27T04:17:53.809Z,83.59
2018-06-27T04:18:34.416Z,82.92
2018-06-27T04:19:15.043Z,83.49
2018-06-27T04:19:55.622Z,83.39
2018-06-27T04:20:36.212Z,83.59
2018-06-27T04:21:16.949Z,82.82
2018-06-27T04:21:57.473Z,82.92
2018-06-27T04:22:38.296Z,82.82
2018-06-27T04:23:18.901Z,82.82
2018-06-27T04:23:59.461Z,83.39
2018-06-27T04:24:40.094Z,82.92
2018-06-27T04:25:20.683Z,83.59
2018-06-27T04:26:02.285Z,82.82
2018-06-27T04:26:42.917Z,83.68
2018-06-27T04:27:23.524Z,83.49
2018-06-27T04:28:04.125Z,83.01
2018-06-27T04:28:44.767Z,82.73
2018-06-27T04:29:26.143Z,83.59
2018-06-27T04:30:07.131Z,83.01
2018-06-27T04:30:49.222Z,83.01
2018-06-27T04:31:30.301Z,83.59
2018-06-27T04:32:14.020Z,83.01
2018-06-27T04:32:54.933Z,83.01
2018-06-27T04:33:36.207Z,83.01
2018-06-27T04:34:17.982Z,83.11
2018-06-27T04:34:58.710Z,82.92
2018-06-27T04:35:39.740Z,83.01
2018-06-27T04:36:21.090Z,83.05
2018-06-27T04:37:02.055Z,82.86
2018-06-27T04:37:43.552Z,82.86
2018-06-27T04:38:24.840Z,82.86
2018-06-27T04:39:05.980Z,82.38
2018-06-27T04:39:47.207Z,82.43
2018-06-27T04:40:28.545Z,81.9
2018-06-27T04:41:09.976Z,82.29
2018-06-27T04:41:51.353Z,83.05
2018-06-27T04:42:33.082Z,82.29
2018-06-27T04:43:14.409Z,82.19
2018-06-27T04:43:56.520Z,82.19
2018-06-27T04:44:39.511Z,82.38
2018-06-27T04:45:21.339Z,82.38
2018-06-27T04:46:03.471Z,82
2018-06-27T04:46:47.434Z,81.81
2018-06-27T04:47:28.714Z,82.29
2018-06-27T04:48:13.149Z,81.71
2018-06-27T04:48:55.392Z,81.71
2018-06-27T04:49:38.421Z,81.66
2018-06-27T04:50:19.947Z,81.81
2018-06-27T04:51:01.231Z,80.89
2018-06-27T04:51:42.633Z,80.7
2018-06-27T04:52:25.491Z,80.99
2018-06-27T04:53:07.413Z,80.32
2018-06-27T04:53:55.356Z,80.6
2018-06-27T04:54:39.644Z,80.7
2018-06-27T04:55:21.959Z,80.51
2018-06-27T04:56:04.737Z,80.32
2018-06-27T04:56:45.730Z,79.55
2018-06-27T04:57:27.028Z,79.93
2018-06-27T04:58:09.299Z,79.26
2018-06-27T04:58:51.468Z,79.45
2018-06-27T04:59:32.826Z,79.74
2018-06-27T05:00:14.660Z,79.64
2018-06-27T05:00:57.930Z,79.97
2018-06-27T05:01:39.233Z,79.78
2018-06-27T05:02:20.541Z,79.68
2018-06-27T05:03:02.730Z,79.3
2018-06-27T05:03:47.442Z,79.21
2018-06-27T05:04:28.801Z,79.3
2018-06-27T05:05:10.110Z,78.72
2018-06-27T05:05:51.977Z,78.82
2018-06-27T05:06:34.939Z,78.82
2018-06-27T05:07:21.468Z,78.63
2018-06-27T05:08:03.683Z,78.44
2018-06-27T05:08:47.036Z,78.34
2018-06-27T05:09:30.169Z,78.53
2018-06-27T05:10:11.542Z,78.15
2018-06-27T05:10:52.891Z,77.95
2018-06-27T05:11:34.352Z,77.95
2018-06-27T05:12:16.912Z,77.9
2018-06-27T05:12:58.922Z,77.67
2018-06-27T05:13:40.234Z,77.8
2018-06-27T05:14:22.871Z,77.61
2018-06-27T05:15:04.208Z,77.29
2018-06-27T05:15:49.251Z,77.42
2018-06-27T05:16:31.421Z,77.13
2018-06-27T05:17:15.420Z,77.61
2018-06-27T05:17:56.817Z,77.04
2018-06-27T05:18:39.918Z,77.04
2018-06-27T05:19:22.964Z,76.65
2018-06-27T05:20:04.287Z,76.56
2018-06-27T05:20:45.663Z,76.75
2018-06-27T05:21:29.677Z,76.56
2018-06-27T05:22:11.744Z,76.46
2018-06-27T05:22:55.496Z,77.04
2018-06-27T05:23:36.750Z,76.94
2018-06-27T05:24:18.942Z,76.75
2018-06-27T05:25:00.940Z,76.17
2018-06-27T05:25:46.276Z,76.17
2018-06-27T05:26:30.196Z,76.27
2018-06-27T05:27:12.595Z,76.5
2018-06-27T05:27:54.769Z,76.21
2018-06-27T05:28:38.953Z,75.63
2018-06-27T05:29:22.552Z,75.25
2018-06-27T05:30:04.465Z,74.68
2018-06-27T05:30:46.697Z,74.48
2018-06-27T05:31:31.660Z,74.39
2018-06-27T05:32:14.944Z,74.29
2018-06-27T05:32:58.954Z,73.91
2018-06-27T05:33:40.351Z,73.46
2018-06-27T05:34:22.516Z,73.18
2018-06-27T05:35:03.890Z,73.18
2018-06-27T05:35:45.172Z,73.18
2018-06-27T05:36:28.482Z,72.89
2018-06-27T05:37:09.831Z,72.79
2018-06-27T05:37:52.754Z,72.69
2018-06-27T05:38:35.681Z,72.5
2018-06-27T05:39:18.005Z,72.79
2018-06-27T05:39:59.310Z,72.31
2018-06-27T05:40:41.499Z,72.89
2018-06-27T05:41:23.448Z,72.5
2018-06-27T05:42:04.796Z,72.73
2018-06-27T05:42:47.935Z,73.02
2018-06-27T05:43:30.260Z,72.34
2018-06-27T05:44:11.660Z,73.02
2018-06-27T05:44:53.000Z,72.29
2018-06-27T05:45:34.452Z,71.71
2018-06-27T05:46:18.528Z,71.81
2018-06-27T05:47:00.772Z,71.52
2018-06-27T05:47:42.106Z,71.14
2018-06-27T05:48:25.357Z,71.94
2018-06-27T05:49:06.656Z,71.75
2018-06-27T05:49:48.073Z,70.11
2018-06-27T05:50:31.942Z,69.44
2018-06-27T05:51:15.477Z,69.44
2018-06-27T05:52:03.729Z,68.67
2018-06-27T05:52:46.009Z,69.57
2018-06-27T05:53:27.975Z,68.41
2018-06-27T05:54:09.337Z,68.9
2018-06-27T05:54:50.679Z,67.93
2018-06-27T05:55:33.972Z,68.03
2018-06-27T05:56:16.969Z,67.74
2018-06-27T05:56:59.006Z,67.35
2018-06-27T05:57:42.720Z,66.71
2018-06-27T05:58:26.477Z,66.68
2018-06-27T05:59:08.705Z,66.91
2018-06-27T05:59:51.734Z,66.42
2018-06-27T06:00:34.132Z,66.81
2018-06-27T06:01:15.556Z,66.42
2018-06-27T06:01:57.549Z,66.71
2018-06-27T06:02:38.881Z,66.62
2018-06-27T06:03:22.196Z,66.42
2018-06-27T06:04:04.028Z,66.65
2018-06-27T06:04:46.998Z,66.75
2018-06-27T06:05:30.495Z,66.85
2018-06-27T06:06:11.794Z,66.07
2018-06-27T06:06:53.972Z,65.2
2018-06-27T06:07:35.328Z,65.14
2018-06-27T06:08:17.233Z,64.63
2018-06-27T06:08:58.551Z,64.15
2018-06-27T06:09:40.554Z,63.79
2018-06-27T06:10:22.691Z,64.34
2018-06-27T06:11:04.767Z,64.47
2018-06-27T06:11:46.139Z,64.28
2018-06-27T06:12:28.544Z,63.57
2018-06-27T06:13:10.968Z,63.28
2018-06-27T06:13:53.970Z,64.18
2018-06-27T06:14:36.730Z,64.76
2018-06-27T06:15:20.728Z,64.47
2018-06-27T06:16:03.500Z,63.6
2018-06-27T06:16:44.809Z,63.31
2018-06-27T06:17:30.734Z,63.02
2018-06-27T06:18:11.943Z,62.93
2018-06-27T06:18:55.511Z,62.66
2018-06-27T06:19:36.882Z,62.96
2018-06-27T06:20:19.941Z,63.44
2018-06-27T06:21:06.974Z,62.96
2018-06-27T06:21:54.972Z,63.24
2018-06-27T06:22:36.964Z,64.21
2018-06-27T06:23:19.977Z,63.24
2018-06-27T06:24:02.080Z,62.6
2018-06-27T06:24:43.983Z,62.22
2018-06-27T06:25:26.022Z,62.31
2018-06-27T06:26:08.968Z,61.16
2018-06-27T06:26:50.223Z,61.54
2018-06-27T06:27:31.577Z,62.22
2018-06-27T06:28:13.745Z,61.64
2018-06-27T06:28:55.191Z,61.44
2018-06-27T06:29:39.415Z,61.25
2018-06-27T06:30:20.738Z,61.44
2018-06-27T06:31:02.061Z,61.06
2018-06-27T06:31:44.091Z,61.16
2018-06-27T06:32:28.087Z,60.1
2018-06-27T06:33:12.500Z,59.13
2018-06-27T06:33:56.473Z,59.9
2018-06-27T06:34:40.495Z,60.48
2018-06-27T06:35:21.782Z,60
2018-06-27T06:36:04.979Z,60.77
2018-06-27T06:36:48.805Z,61.54
2018-06-27T06:37:31.022Z,60.86
2018-06-27T06:38:13.273Z,60.8
2018-06-27T06:38:56.335Z,60.22
2018-06-27T06:39:37.598Z,59.93
2018-06-27T06:40:19.194Z,58.94
2018-06-27T06:41:02.223Z,59.16
2018-06-27T06:41:43.579Z,59.35
2018-06-27T06:42:24.990Z,59.25
2018-06-27T06:43:07.748Z,59.93
2018-06-27T06:43:48.955Z,60.03
2018-06-27T06:44:31.043Z,58.77
2018-06-27T06:45:12.261Z,58.97
2018-06-27T06:45:53.580Z,59.25
2018-06-27T06:46:35.033Z,59.93
2018-06-27T06:47:18.048Z,59.93
2018-06-27T06:48:03.007Z,59.93
2018-06-27T06:48:46.145Z,60.06
2018-06-27T06:49:28.769Z,59.28
2018-06-27T06:50:12.493Z,58.22
2018-06-27T06:50:54.882Z,57.42
2018-06-27T06:51:37.775Z,58.9
2018-06-27T06:52:19.262Z,58.12
2018-06-27T06:53:03.986Z,58.8
2018-06-27T06:53:46.798Z,58.42
2018-06-27T06:54:30.778Z,58.8
2018-06-27T06:55:15.987Z,57.54
2018-06-27T06:55:59.335Z,57.64
2018-06-27T06:56:42.372Z,57.74
2018-06-27T06:57:25.486Z,58
2018-06-27T06:58:09.695Z,58.8
2018-06-27T06:58:51.763Z,59.96
2018-06-27T06:59:35.063Z,60.16
2018-06-27T07:00:16.421Z,57.45
2018-06-27T07:00:58.493Z,56.58
2018-06-27T07:01:39.818Z,57.54
2018-06-27T07:02:21.224Z,56.58
2018-06-27T07:03:05.971Z,57.64
2018-06-27T07:03:47.375Z,57.45
2018-06-27T07:04:28.745Z,56.56
2018-06-27T07:05:10.761Z,54.82
2018-06-27T07:05:52.097Z,55.1
2018-06-27T07:06:36.767Z,56.56
2018-06-27T07:07:18.116Z,56.74
2018-06-27T07:08:00.236Z,56.36
2018-06-27T07:08:41.626Z,57.71
2018-06-27T07:09:23.769Z,56.94
2018-06-27T07:10:06.044Z,56.36
2018-06-27T07:10:48.224Z,56.26
2018-06-27T07:11:29.537Z,56.56
2018-06-27T07:12:11.865Z,56.94
2018-06-27T07:12:53.843Z,56.46
2018-06-27T07:13:35.209Z,56.84
2018-06-27T07:14:17.456Z,57.52
2018-06-27T07:14:58.733Z,58.29
2018-06-27T07:15:40.124Z,57.71
2018-06-27T07:16:22.082Z,57.93
2018-06-27T07:17:03.452Z,59.16
2018-06-27T07:17:45.596Z,57.64
2018-06-27T07:18:26.985Z,58.42
2018-06-27T07:19:09.000Z,58.12
2018-06-27T07:19:50.359Z,58.61
2018-06-27T07:20:31.759Z,58.03
2018-06-27T07:21:14.836Z,59.38
2018-06-27T07:21:56.256Z,59.96
2018-06-27T07:22:37.625Z,57.87
2018-06-27T07:23:18.904Z,56.61
2018-06-27T07:24:01.055Z,57.67
2018-06-27T07:24:43.911Z,57.77
2018-06-27T07:25:26.852Z,56.41
2018-06-27T07:26:11.077Z,55.45
2018-06-27T07:26:53.255Z,56.13
2018-06-27T07:27:37.324Z,55.45
2018-06-27T07:28:19.365Z,54.49
2018-06-27T07:29:01.563Z,55.45
2018-06-27T07:29:42.862Z,54.39
2018-06-27T07:30:24.796Z,53.61
2018-06-27T07:31:09.794Z,53.52
2018-06-27T07:31:51.846Z,54.19
2018-06-27T07:32:35.030Z,53.61
2018-06-27T07:33:17.787Z,54
2018-06-27T07:34:04.519Z,53.52
2018-06-27T07:34:45.836Z,54.1
2018-06-27T07:35:29.021Z,54
2018-06-27T07:36:10.988Z,53.81
2018-06-27T07:36:52.285Z,53.71
2018-06-27T07:37:33.711Z,53.52
2018-06-27T07:38:15.806Z,52.81
2018-06-27T07:38:57.459Z,53.52
2018-06-27T07:39:38.797Z,54
2018-06-27T07:40:21.805Z,53.42
2018-06-27T07:41:03.220Z,52.81
2018-06-27T07:41:46.029Z,52.84
2018-06-27T07:42:27.433Z,53.59
2018-06-27T07:43:08.784Z,54.68
2018-06-27T07:43:50.154Z,54.49
2018-06-27T07:44:32.354Z,54.58
2018-06-27T07:45:14.545Z,55.16
2018-06-27T07:45:55.885Z,54.77
2018-06-27T07:46:37.386Z,54.68
2018-06-27T07:47:21.030Z,54.97
2018-06-27T07:48:03.343Z,55.35
2018-06-27T07:48:45.272Z,54.39
2018-06-27T07:49:26.609Z,54.58
2018-06-27T07:50:07.951Z,55.19
2018-06-27T07:50:49.343Z,54
2018-06-27T07:51:31.570Z,53.42
2018-06-27T07:52:13.791Z,53.61
2018-06-27T07:52:55.028Z,54.1
2018-06-27T07:53:36.331Z,53.81
2018-06-27T07:54:19.576Z,53.59
2018-06-27T07:55:00.940Z,53.78
2018-06-27T07:55:43.038Z,53.49
2018-06-27T07:56:25.324Z,52.98
2018-06-27T07:57:08.321Z,53.75
2018-06-27T07:57:51.567Z,54.53
2018-06-27T07:58:33.553Z,53.66
2018-06-27T07:59:16.819Z,55.1
2018-06-27T07:59:58.163Z,55.4
2018-06-27T08:00:41.028Z,56.16
2018-06-27T08:01:23.262Z,55.01
2018-06-27T08:02:04.617Z,53.66
2018-06-27T08:02:45.982Z,53.75
2018-06-27T08:03:27.357Z,53.66
2018-06-27T08:04:09.775Z,53.47
2018-06-27T08:04:52.813Z,53.85
2018-06-27T08:05:34.760Z,53.66
2018-06-27T08:06:17.072Z,53.66
2018-06-27T08:07:01.070Z,53.95
2018-06-27T08:07:42.418Z,54.43
2018-06-27T08:08:23.641Z,55.3
2018-06-27T08:09:06.545Z,54.91
2018-06-27T08:09:49.584Z,53.63
2018-06-27T08:10:32.541Z,53.85
2018-06-27T08:11:15.545Z,54.82
2018-06-27T08:11:56.924Z,53.63
2018-06-27T08:12:38.879Z,54.6
2018-06-27T08:13:20.237Z,55.66
2018-06-27T08:14:01.608Z,56.24
2018-06-27T08:14:44.571Z,55.59
2018-06-27T08:15:26.815Z,55.2
2018-06-27T08:16:09.028Z,55.78
2018-06-27T08:16:50.396Z,56.84
2018-06-27T08:17:31.657Z,57.32
2018-06-27T08:18:13.038Z,58.12
2018-06-27T08:18:55.319Z,56.87
2018-06-27T08:19:36.643Z,56.03
2018-06-27T08:20:17.955Z,55.35
2018-06-27T08:21:00.076Z,56.32
2018-06-27T08:21:41.423Z,54
2018-06-27T08:22:22.674Z,54.19
2018-06-27T08:23:03.951Z,54.68
2018-06-27T08:23:45.298Z,55.16
2018-06-27T08:24:26.591Z,52.55
2018-06-27T08:25:08.565Z,52.19
2018-06-27T08:25:50.558Z,51.97
2018-06-27T08:26:31.903Z,52.58
2018-06-27T08:27:13.854Z,52
2018-06-27T08:27:56.043Z,51.9
2018-06-27T08:28:37.449Z,51.13
2018-06-27T08:29:19.351Z,50.74
2018-06-27T08:30:00.619Z,50.84
2018-06-27T08:30:43.844Z,51.03
2018-06-27T08:31:25.202Z,50.74
2018-06-27T08:32:09.330Z,50.26
2018-06-27T08:32:51.324Z,50.84
2018-06-27T08:33:33.810Z,50.93
2018-06-27T08:34:18.059Z,50.93
2018-06-27T08:35:00.811Z,51.71
2018-06-27T08:35:42.225Z,51.42
2018-06-27T08:36:24.805Z,51.03
2018-06-27T08:37:06.955Z,50.74
2018-06-27T08:37:48.333Z,51.51
2018-06-27T08:38:30.541Z,52.87
2018-06-27T08:39:12.335Z,52.89
2018-06-27T08:39:53.710Z,52.51
2018-06-27T08:40:34.974Z,50.86
2018-06-27T08:41:17.420Z,50.67
2018-06-27T08:41:59.674Z,49.77
2018-06-27T08:42:41.765Z,49.49
2018-06-27T08:43:24.010Z,49.99
2018-06-27T08:44:06.133Z,49
2018-06-27T08:44:48.311Z,47.94
2018-06-27T08:45:29.764Z,47.96
2018-06-27T08:46:12.662Z,48.81
2018-06-27T08:46:54.957Z,49.32
2018-06-27T08:47:36.283Z,49
2018-06-27T08:48:19.076Z,47.96
2018-06-27T08:49:01.188Z,47.94
2018-06-27T08:49:42.508Z,47.94
2018-06-27T08:50:23.884Z,47.26
2018-06-27T08:51:05.183Z,46.88
2018-06-27T08:51:46.455Z,47.05
2018-06-27T08:52:30.555Z,47.81
2018-06-27T08:53:12.805Z,47.91
2018-06-27T08:53:54.168Z,47.91
2018-06-27T08:54:35.336Z,49.46
2018-06-27T08:55:18.089Z,49.75
2018-06-27T08:56:00.084Z,49.65
2018-06-27T08:56:43.007Z,48.3